Time;durP1;ratioP1;P1;durP2;ratioP2;P2;SDS_P1;SDS_P2;PMS_P1;PMS_P2;Temp;Humidity;BMP_temperature;BMP_pressure;BME280_temperature;BME280_humidity;BME280_pressure;Samples;Min_cycle;Max_cycle;Signal;HPM_P1;HPM_P2
2022/09/25 00:01:27;;;;;;;5.93;2.70;;;9.10;99.90;;;;;;5056679;28;20102;-71
2022/09/25 00:03:52;;;;;;;8.13;2.70;;;9.00;99.90;;;;;;5074512;28;20503;-71
2022/09/25 00:06:21;;;;;;;10.60;3.30;;;9.00;99.90;;;;;;5074464;28;20043;-71
2022/09/25 00:08:47;;;;;;;8.88;3.30;;;9.00;99.90;;;;;;5074349;28;20106;-71
2022/09/25 00:11:16;;;;;;;6.68;3.25;;;8.90;99.90;;;;;;5074060;28;20406;-71
2022/09/25 00:13:43;;;;;;;9.30;3.40;;;8.90;99.90;;;;;;5074397;28;20051;-72
2022/09/25 00:16:13;;;;;;;8.60;3.55;;;8.80;99.90;;;;;;5074265;28;20036;-71
2022/09/25 00:21:27;;;;;;;9.00;3.10;;;8.80;99.90;;;;;;5056599;28;20091;-71
2022/09/25 00:23:52;;;;;;;8.63;3.95;;;8.80;99.90;;;;;;5074161;28;20060;-71
2022/09/25 00:26:19;;;;;;;6.47;3.13;;;8.80;99.90;;;;;;5074278;28;20044;-71
2022/09/25 00:28:44;;;;;;;7.15;2.75;;;8.70;99.90;;;;;;5073779;28;20052;-71
2022/09/25 00:31:16;;;;;;;6.68;3.40;;;8.70;99.90;;;;;;5073700;28;20036;-71
2022/09/25 00:33:42;;;;;;;10.25;3.30;;;8.70;99.90;;;;;;5073853;28;20115;-71
2022/09/25 00:36:09;;;;;;;6.80;2.92;;;8.70;99.90;;;;;;5073556;28;20116;-71
2022/09/25 00:38:36;;;;;;;5.90;2.93;;;8.60;99.90;;;;;;5073871;28;20048;-71
2022/09/25 00:41:05;;;;;;;8.50;3.47;;;8.70;99.90;;;;;;5055672;28;20495;-71
2022/09/25 00:43:47;;;;;;;7.80;3.00;;;8.70;99.90;;;;;;5074069;28;20174;-71
2022/09/25 00:46:21;;;;;;;11.43;3.88;;;8.70;99.90;;;;;;5074146;28;20043;-71
2022/09/25 00:49:09;;;;;;;10.50;3.45;;;8.60;99.90;;;;;;5073479;28;20044;-71
2022/09/25 00:51:39;;;;;;;8.55;3.20;;;8.60;99.90;;;;;;5073457;28;20131;-71
2022/09/25 00:54:09;;;;;;;9.70;3.53;;;8.70;99.90;;;;;;5055857;28;20123;-71
2022/09/25 00:56:42;;;;;;;8.80;3.25;;;8.60;99.90;;;;;;5073692;28;20044;-71
2022/09/25 00:59:18;;;;;;;8.18;3.40;;;8.60;99.90;;;;;;5073759;28;20094;-71
2022/09/25 01:01:45;;;;;;;9.32;3.25;;;8.50;99.90;;;;;;5073467;28;20048;-72
2022/09/25 01:04:12;;;;;;;7.97;3.30;;;8.60;99.90;;;;;;5073550;28;20050;-71
2022/09/25 01:06:38;;;;;;;9.98;3.55;;;8.50;99.90;;;;;;5055601;28;20517;-71
2022/09/25 01:09:04;;;;;;;8.02;3.08;;;8.50;99.90;;;;;;5073261;28;20040;-71
2022/09/25 01:11:30;;;;;;;7.50;3.20;;;8.40;99.90;;;;;;5055246;28;20036;-71
2022/09/25 01:13:59;;;;;;;11.00;3.80;;;8.40;99.90;;;;;;5055279;28;20050;-71
2022/09/25 01:16:26;;;;;;;8.30;3.38;;;8.30;99.90;;;;;;5073359;28;20044;-71
2022/09/25 01:19:23;;;;;;;8.40;3.38;;;8.30;99.90;;;;;;5073193;28;20384;-71
2022/09/25 01:21:54;;;;;;;7.30;2.78;;;8.20;99.90;;;;;;5063847;28;20052;-71
2022/09/25 01:24:27;;;;;;;9.07;3.50;;;8.20;99.90;;;;;;5073414;28;20048;-71
2022/09/25 01:27:15;;;;;;;8.15;3.30;;;8.20;99.90;;;;;;5073517;28;20395;-71
2022/09/25 01:30:03;;;;;;;9.93;3.05;;;8.10;99.90;;;;;;5073287;28;20055;-71
2022/09/25 01:32:32;;;;;;;6.95;3.40;;;8.20;99.90;;;;;;5073030;28;20045;-71
2022/09/25 01:35:23;;;;;;;9.02;3.65;;;8.20;99.90;;;;;;5073210;28;20089;-71
2022/09/25 01:37:58;;;;;;;8.52;3.55;;;8.10;99.90;;;;;;5073491;28;20115;-72
2022/09/25 01:40:45;;;;;;;7.55;3.10;;;8.10;99.90;;;;;;5072859;28;20102;-71
2022/09/25 01:43:30;;;;;;;12.43;3.47;;;8.10;99.90;;;;;;5073312;28;20396;-71
2022/09/25 01:46:03;;;;;;;7.78;3.78;;;8.30;99.90;;;;;;5073206;28;20098;-71
2022/09/25 01:48:31;;;;;;;13.35;3.53;;;8.30;99.90;;;;;;5073419;28;20166;-71
2022/09/25 01:51:15;;;;;;;10.65;3.83;;;8.10;99.90;;;;;;5055071;28;20119;-71
2022/09/25 01:53:46;;;;;;;8.32;3.33;;;8.00;99.90;;;;;;5073046;28;20049;-71
2022/09/25 01:56:33;;;;;;;8.45;3.55;;;8.00;99.90;;;;;;5073108;28;20037;-71
2022/09/25 01:59:08;;;;;;;10.60;3.08;;;8.00;99.90;;;;;;5072843;28;20052;-71
2022/09/25 02:01:39;;;;;;;7.30;3.35;;;8.00;99.90;;;;;;5075607;28;20040;-71
2022/09/25 02:04:34;;;;;;;5.68;3.22;;;8.00;99.90;;;;;;5076957;28;20048;-71
2022/09/25 02:07:04;;;;;;;7.97;3.28;;;8.10;99.90;;;;;;5073734;28;20056;-71
2022/09/25 02:09:38;;;;;;;7.15;3.67;;;7.90;99.90;;;;;;5076571;28;20495;-71
2022/09/25 02:12:33;;;;;;;9.90;3.55;;;7.90;99.90;;;;;;5076475;28;20483;-71
2022/09/25 02:15:20;;;;;;;7.72;3.92;;;7.90;99.90;;;;;;5076644;28;20076;-71
2022/09/25 02:20:46;;;;;;;7.32;3.53;;;8.00;99.90;;;;;;5076698;28;20452;-72
2022/09/25 02:23:22;;;;;;;6.93;3.40;;;8.00;99.90;;;;;;5058338;28;20044;-71
2022/09/25 02:26:07;;;;;;;6.75;3.13;;;7.80;99.90;;;;;;5076215;28;20518;-71
2022/09/25 02:28:33;;;;;;;7.97;3.30;;;7.80;99.90;;;;;;5076084;28;20491;-71
2022/09/25 02:30:59;;;;;;;8.68;3.53;;;;;;;;;;5058185;28;20079;-71
2022/09/25 02:33:25;;;;;;;9.07;3.38;;;7.70;99.90;;;;;;5076299;28;20106;-71
2022/09/25 02:35:51;;;;;;;9.27;3.30;;;7.70;99.90;;;;;;5076067;28;20496;-71
2022/09/25 02:38:18;;;;;;;8.25;3.45;;;7.70;99.90;;;;;;5076034;28;20044;-71
2022/09/25 02:40:53;;;;;;;9.07;3.25;;;7.70;99.90;;;;;;5075870;28;20392;-71
2022/09/25 02:43:41;;;;;;;7.97;3.22;;;7.60;99.90;;;;;;5058006;28;20066;-71
2022/09/25 02:46:43;;;;;;;6.38;3.03;;;7.60;99.90;;;;;;5076033;28;20055;-71
2022/09/25 02:49:28;;;;;;;8.82;3.50;;;7.50;99.90;;;;;;5075948;28;20059;-71
2022/09/25 02:52:13;;;;;;;6.68;3.00;;;7.60;99.90;;;;;;5076339;28;20119;-71
2022/09/25 02:54:53;;;;;;;5.97;3.00;;;7.50;99.90;;;;;;5076322;28;20048;-71
2022/09/25 02:57:57;;;;;;;8.63;2.88;;;7.50;99.90;;;;;;5059120;28;20044;-71
2022/09/25 03:00:23;;;;;;;6.80;3.15;;;7.40;99.90;;;;;;5077774;28;20044;-71
2022/09/25 03:02:55;;;;;;;6.93;3.22;;;7.40;99.90;;;;;;5075749;28;20518;-70
2022/09/25 03:05:22;;;;;;;7.53;3.00;;;7.40;99.90;;;;;;5075612;28;20077;-71
2022/09/25 03:10:34;;;;;;;8.50;3.28;;;7.40;99.90;;;;;;5075371;28;20139;-70
2022/09/25 03:13:33;;;;;;;8.68;3.55;;;7.40;99.90;;;;;;5074274;28;20056;-70
2022/09/25 03:16:11;;;;;;;11.20;3.67;;;7.40;99.90;;;;;;5020825;28;20056;-70
2022/09/25 03:18:37;;;;;;;8.35;3.30;;;7.40;99.90;;;;;;5075218;28;20052;-71
2022/09/25 03:21:03;;;;;;;5.38;3.17;;;7.40;99.90;;;;;;5075456;28;20044;-71
2022/09/25 03:23:31;;;;;;;7.80;3.42;;;7.40;99.90;;;;;;5075311;28;20263;-71
2022/09/25 03:25:57;;;;;;;6.80;3.27;;;7.40;99.90;;;;;;5057434;28;20052;-71
2022/09/25 03:28:23;;;;;;;10.90;3.60;;;7.40;99.90;;;;;;5075114;28;20047;-70
2022/09/25 03:31:00;;;;;;;6.80;3.40;;;7.40;99.90;;;;;;5075269;28;20049;-70
2022/09/25 03:33:31;;;;;;;10.23;3.40;;;7.30;99.90;;;;;;5075277;28;20391;-70
2022/09/25 03:36:19;;;;;;;6.68;3.13;;;7.30;99.90;;;;;;5075083;28;20048;-71
2022/09/25 03:38:47;;;;;;;7.47;3.35;;;7.40;99.90;;;;;;5075023;28;20376;-70
2022/09/25 03:41:14;;;;;;;5.65;2.90;;;7.30;99.90;;;;;;5074941;28;20049;-70
2022/09/25 03:43:42;;;;;;;8.23;3.40;;;7.30;99.90;;;;;;5074634;28;20041;-71
2022/09/25 03:46:11;;;;;;;6.82;3.00;;;7.30;99.90;;;;;;5074969;28;20040;-71
2022/09/25 03:48:37;;;;;;;7.28;3.53;;;7.30;99.90;;;;;;5056775;28;20482;-71
2022/09/25 03:51:05;;;;;;;7.55;3.30;;;7.20;99.90;;;;;;5074599;28;20495;-70
2022/09/25 03:53:32;;;;;;;6.00;2.80;;;7.30;99.90;;;;;;5074563;28;20491;-71
2022/09/25 03:55:58;;;;;;;8.27;3.42;;;;;;;;;;5074600;28;20049;-71
2022/09/25 03:58:24;;;;;;;10.10;3.50;;;7.20;99.90;;;;;;5074430;28;20566;-70
2022/09/25 04:00:49;;;;;;;7.07;3.42;;;7.20;99.90;;;;;;5074645;28;20036;-71
2022/09/25 04:03:16;;;;;;;9.27;3.22;;;7.20;99.90;;;;;;5074424;28;20495;-71
2022/09/25 04:05:42;;;;;;;8.02;3.40;;;7.20;99.90;;;;;;5074431;28;20124;-70
2022/09/25 04:08:09;;;;;;;10.40;3.45;;;7.20;99.90;;;;;;5074341;28;20072;-70
2022/09/25 04:10:37;;;;;;;8.82;3.40;;;7.20;99.90;;;;;;5074480;28;20045;-71
2022/09/25 04:13:10;;;;;;;7.78;3.83;;;7.20;99.90;;;;;;5074689;28;20040;-70
2022/09/25 04:15:35;;;;;;;6.93;3.05;;;7.20;99.90;;;;;;5074799;28;20040;-70
2022/09/25 04:18:01;;;;;;;7.88;3.55;;;7.10;99.90;;;;;;5074270;28;20040;-70
2022/09/25 04:20:27;;;;;;;9.20;3.72;;;7.10;99.90;;;;;;5074066;28;20044;-70
2022/09/25 04:22:52;;;;;;;7.63;3.30;;;7.10;99.90;;;;;;5073573;28;20040;-70
2022/09/25 04:25:20;;;;;;;8.82;3.25;;;7.10;99.90;;;;;;5073932;28;20044;-71
2022/09/25 04:27:46;;;;;;;8.60;3.83;;;7.10;99.90;;;;;;5055976;28;20048;-70
2022/09/25 04:30:12;;;;;;;7.63;3.30;;;7.10;99.90;;;;;;5073995;28;20094;-70
2022/09/25 04:35:22;;;;;;;6.22;3.70;;;7.10;99.90;;;;;;5073868;28;20403;-70
2022/09/25 04:37:48;;;;;;;9.68;4.05;;;7.10;99.90;;;;;;5055747;28;20047;-70
2022/09/25 04:40:14;;;;;;;11.07;4.32;;;7.10;99.90;;;;;;5073896;28;20438;-70
2022/09/25 04:42:40;;;;;;;10.48;3.75;;;7.10;99.90;;;;;;5073553;28;20048;-70
2022/09/25 04:45:06;;;;;;;7.35;3.35;;;7.10;99.90;;;;;;5073839;28;20052;-70
2022/09/25 04:47:32;;;;;;;10.15;3.63;;;7.10;99.90;;;;;;5073764;28;20101;-70
2022/09/25 04:49:57;;;;;;;5.30;3.53;;;7.10;99.90;;;;;;5073612;28;20047;-70
2022/09/25 04:52:23;;;;;;;6.30;3.63;;;7.10;99.90;;;;;;5073445;28;20442;-70
2022/09/25 04:54:49;;;;;;;11.38;3.40;;;7.10;99.90;;;;;;5055551;28;20045;-70
2022/09/25 04:57:17;;;;;;;9.82;3.75;;;7.10;99.90;;;;;;5073594;28;20395;-70
2022/09/25 04:59:42;;;;;;;6.93;3.70;;;7.10;99.90;;;;;;5073478;28;20036;-70
2022/09/25 05:02:08;;;;;;;7.78;3.75;;;7.10;99.90;;;;;;5073340;28;20040;-70
2022/09/25 05:04:33;;;;;;;7.53;3.80;;;7.10;99.90;;;;;;5073387;28;20123;-70
2022/09/25 05:06:59;;;;;;;6.90;3.55;;;7.10;99.90;;;;;;5073276;28;20056;-70
2022/09/25 05:09:25;;;;;;;9.23;3.95;;;7.00;99.90;;;;;;5073704;28;20048;-70
2022/09/25 05:11:51;;;;;;;9.10;3.85;;;7.00;99.90;;;;;;5073216;28;20043;-70
2022/09/25 05:14:16;;;;;;;7.53;3.40;;;6.90;99.90;;;;;;5073247;28;20144;-70
2022/09/25 05:16:42;;;;;;;12.55;3.83;;;7.00;99.90;;;;;;5073203;28;20036;-70
2022/09/25 05:19:08;;;;;;;8.45;3.50;;;6.90;99.90;;;;;;5073154;28;20075;-70
2022/09/25 05:21:33;;;;;;;7.38;3.42;;;6.90;99.90;;;;;;5055173;28;20056;-70
2022/09/25 05:23:59;;;;;;;7.15;3.67;;;6.90;99.90;;;;;;5073068;28;20051;-70
2022/09/25 05:26:26;;;;;;;9.52;3.85;;;6.90;99.90;;;;;;5073222;28;20043;-70
2022/09/25 05:28:51;;;;;;;8.65;3.85;;;6.90;99.90;;;;;;5073418;28;20070;-70
2022/09/25 05:31:17;;;;;;;8.45;3.88;;;7.00;99.90;;;;;;5075835;28;20507;-70
2022/09/25 05:33:42;;;;;;;10.43;4.20;;;7.00;99.90;;;;;;5073252;28;20053;-70
2022/09/25 05:36:09;;;;;;;7.43;3.78;;;7.00;99.90;;;;;;5075314;28;20047;-70
2022/09/25 05:38:36;;;;;;;8.10;4.07;;;7.00;99.90;;;;;;5059376;28;20057;-70
2022/09/25 05:41:09;;;;;;;6.85;4.00;;;7.10;99.90;;;;;;5077297;28;20101;-70
2022/09/25 05:43:40;;;;;;;13.20;4.45;;;7.00;99.90;;;;;;5077071;28;20040;-70
2022/09/25 05:46:06;;;;;;;10.68;4.50;;;7.10;99.90;;;;;;5059146;28;20052;-70
2022/09/25 05:48:32;;;;;;;5.38;3.13;;;7.20;99.90;;;;;;5077265;28;20036;-70
2022/09/25 05:50:58;;;;;;;9.38;3.78;;;7.20;99.90;;;;;;5076867;28;20047;-70
2022/09/25 05:53:24;;;;;;;10.57;4.13;;;7.20;99.90;;;;;;5077023;28;20049;-70
2022/09/25 05:55:54;;;;;;;8.05;3.80;;;7.30;99.90;;;;;;5076867;28;20044;-70
2022/09/25 05:58:20;;;;;;;10.48;3.67;;;7.30;99.90;;;;;;5059008;28;20048;-70
2022/09/25 06:00:47;;;;;;;10.55;3.70;;;7.40;99.90;;;;;;5076675;28;20049;-70
2022/09/25 06:03:13;;;;;;;10.75;3.70;;;7.50;99.90;;;;;;5058744;28;20041;-70
2022/09/25 06:05:39;;;;;;;10.55;4.70;;;7.50;99.90;;;;;;5076950;28;20041;-70
2022/09/25 06:08:05;;;;;;;7.68;3.70;;;7.60;99.90;;;;;;5076732;28;20128;-70
2022/09/25 06:10:32;;;;;;;7.93;3.85;;;7.70;99.90;;;;;;5076879;28;20110;-70
2022/09/25 06:13:03;;;;;;;9.43;4.03;;;7.70;99.90;;;;;;5076974;28;20067;-70
2022/09/25 06:15:36;;;;;;;6.93;3.80;;;7.80;99.90;;;;;;5076527;28;20040;-70
2022/09/25 06:18:04;;;;;;;8.40;3.67;;;7.90;99.90;;;;;;5076730;28;20047;-70
2022/09/25 06:20:30;;;;;;;11.88;3.88;;;8.00;99.90;;;;;;5076513;28;20041;-70
2022/09/25 06:22:57;;;;;;;8.25;4.07;;;8.10;99.90;;;;;;5076184;28;20460;-70
2022/09/25 06:25:25;;;;;;;9.73;4.00;;;8.20;99.90;;;;;;5058732;28;20044;-70
2022/09/25 06:28:00;;;;;;;9.02;4.00;;;8.40;99.90;;;;;;5058352;28;20497;-70
2022/09/25 06:30:32;;;;;;;10.10;3.90;;;8.80;99.90;;;;;;5041404;28;20544;-71
2022/09/25 06:33:00;;;;;;;9.98;4.22;;;9.70;99.90;;;;;;5076424;28;20045;-71
2022/09/25 06:35:27;;;;;;;9.82;3.20;;;10.80;99.90;;;;;;5076189;28;20048;-70
2022/09/25 06:37:57;;;;;;;15.20;3.38;;;11.40;99.90;;;;;;5076099;28;20048;-70
2022/09/25 06:40:26;;;;;;;5.45;2.85;;;12.10;99.90;;;;;;5075880;28;20045;-70
2022/09/25 06:43:00;;;;;;;9.00;2.72;;;12.60;99.90;;;;;;5075937;28;20498;-70
2022/09/25 06:45:27;;;;;;;5.60;2.50;;;12.40;99.90;;;;;;5075995;28;20485;-72
2022/09/25 06:47:56;;;;;;;6.93;2.70;;;12.60;99.90;;;;;;5078140;28;20044;-71
2022/09/25 06:50:30;;;;;;;10.40;2.72;;;12.60;99.90;;;;;;5076998;28;20633;-70
2022/09/25 06:52:59;;;;;;;6.47;2.50;;;13.10;99.90;;;;;;5058060;28;20175;-70
2022/09/25 06:55:26;;;;;;;6.03;2.63;;;13.50;99.90;;;;;;5075517;28;20040;-71
2022/09/25 06:57:52;;;;;;;5.15;2.63;;;13.70;99.90;;;;;;5075923;28;20105;-70
2022/09/25 07:00:18;;;;;;;5.65;2.40;;;13.40;99.90;;;;;;5075803;28;20119;-70
2022/09/25 07:05:28;;;;;;;4.80;2.40;;;12.70;99.90;;;;;;5075601;28;20044;-70
2022/09/25 07:07:54;;;;;;;7.55;2.53;;;12.40;99.90;;;;;;5057704;28;20052;-71
2022/09/25 07:10:20;;;;;;;3.78;2.20;;;12.20;99.90;;;;;;5057821;28;20373;-71
2022/09/25 07:12:47;;;;;;;5.45;2.08;;;12.10;99.90;;;;;;5075562;28;20051;-70
2022/09/25 07:15:14;;;;;;;5.13;2.13;;;12.10;99.90;;;;;;5075462;28;20127;-70
2022/09/25 07:17:44;;;;;;;7.68;2.13;;;12.00;99.90;;;;;;5075502;28;20050;-70
2022/09/25 07:20:12;;;;;;;11.10;2.30;;;12.00;99.90;;;;;;5075452;28;20072;-71
2022/09/25 07:22:39;;;;;;;5.90;2.20;;;12.10;99.90;;;;;;5057345;28;20052;-70
2022/09/25 07:25:05;;;;;;;5.35;2.20;;;12.10;99.90;;;;;;5075472;28;20064;-70
2022/09/25 07:27:31;;;;;;;7.97;1.98;;;12.10;99.90;;;;;;5075228;28;20036;-70
2022/09/25 07:29:56;;;;;;;6.03;2.00;;;12.20;99.90;;;;;;5075015;28;20561;-70
2022/09/25 07:32:22;;;;;;;7.28;1.77;;;12.30;99.90;;;;;;5075111;28;20044;-70
2022/09/25 07:34:50;;;;;;;7.20;2.05;;;12.30;99.90;;;;;;5074895;28;20487;-71
2022/09/25 07:37:16;;;;;;;;;;;12.40;99.90;;;;;;5075331;28;20483;-70
2022/09/25 07:39:42;;;;;;;8.18;2.20;;;12.50;99.90;;;;;;5075116;28;19927;-70
2022/09/25 07:42:08;;;;;;;6.38;1.80;;;12.60;99.90;;;;;;5074488;28;20044;-72
2022/09/25 07:44:33;;;;;;;7.40;2.40;;;12.60;99.90;;;;;;5074873;28;20053;-70
2022/09/25 07:47:01;;;;;;;3.00;1.63;;;12.70;99.90;;;;;;5074737;28;20048;-71
2022/09/25 07:49:28;;;;;;;6.90;1.65;;;12.80;99.90;;;;;;5074683;28;20041;-71
2022/09/25 07:51:53;;;;;;;4.47;2.08;;;12.80;99.90;;;;;;5074637;28;20052;-70
2022/09/25 07:54:19;;;;;;;7.03;1.70;;;12.90;99.90;;;;;;5074530;28;20043;-71
2022/09/25 07:56:44;;;;;;;4.72;1.75;;;13.00;99.90;;;;;;5074721;28;20040;-71
2022/09/25 07:59:10;;;;;;;7.47;1.60;;;13.10;99.90;;;;;;5073891;28;20040;-71
2022/09/25 08:01:36;;;;;;;6.22;2.05;;;13.20;99.90;;;;;;5074489;28;20040;-71
2022/09/25 08:04:01;;;;;;;4.78;1.50;;;13.30;99.90;;;;;;5074222;28;20037;-71
2022/09/25 08:06:27;;;;;;;5.75;1.42;;;13.40;99.90;;;;;;5074608;28;20055;-71
2022/09/25 08:08:52;;;;;;;6.53;1.75;;;13.50;99.90;;;;;;5074588;28;20556;-70
2022/09/25 08:11:18;;;;;;;2.40;1.15;;;13.50;99.90;;;;;;5074434;28;20062;-71
2022/09/25 08:13:45;;;;;;;6.70;2.05;;;13.60;99.90;;;;;;5074289;28;20044;-71
2022/09/25 08:16:19;;;;;;;7.75;1.70;;;13.80;99.90;;;;;;5074217;28;20041;-71
2022/09/25 08:18:46;;;;;;;3.60;1.20;;;13.90;99.90;;;;;;5074085;28;20503;-71
2022/09/25 08:21:14;;;;;;;5.18;1.42;;;14.00;99.90;;;;;;5073999;28;20048;-71
2022/09/25 08:23:41;;;;;;;3.22;1.20;;;14.10;99.90;;;;;;5074250;28;20037;-71
2022/09/25 08:26:07;;;;;;;6.82;1.48;;;14.20;99.90;;;;;;5074132;28;20086;-71
2022/09/25 08:28:33;;;;;;;6.60;1.40;;;14.40;99.90;;;;;;5074226;28;20052;-71
2022/09/25 08:31:03;;;;;;;4.95;1.63;;;14.40;99.90;;;;;;5073748;28;20052;-70
2022/09/25 08:33:30;;;;;;;4.38;1.20;;;14.50;99.90;;;;;;5074163;28;20048;-70
2022/09/25 08:35:58;;;;;;;5.72;1.30;;;14.60;99.90;;;;;;5073816;28;20067;-71
2022/09/25 08:38:25;;;;;;;3.25;1.17;;;14.50;99.90;;;;;;5056150;28;20052;-71
2022/09/25 08:40:58;;;;;;;6.80;1.30;;;14.50;99.90;;;;;;5073609;28;20048;-73
2022/09/25 08:43:25;;;;;;;5.95;1.33;;;15.50;99.90;;;;;;5073640;28;20074;-71
2022/09/25 08:49:02;;;;;;;4.60;1.35;;;14.90;99.90;;;;;;5073762;28;20068;-71
2022/09/25 08:51:40;;;;;;;4.93;1.35;;;15.10;99.90;;;;;;5073619;28;20052;-71
2022/09/25 08:54:06;;;;;;;3.83;0.80;;;15.10;99.90;;;;;;5073369;28;20079;-71
2022/09/25 08:56:34;;;;;;;3.88;1.17;;;15.20;99.90;;;;;;5073779;28;20076;-71
2022/09/25 08:59:22;;;;;;;4.75;1.17;;;15.20;99.90;;;;;;5073619;28;20040;-71
2022/09/25 09:01:53;;;;;;;3.05;0.80;;;15.20;99.90;;;;;;5073322;28;20056;-71
2022/09/25 09:04:30;;;;;;;4.65;0.70;;;15.20;99.90;;;;;;5073448;28;20438;-72
2022/09/25 09:07:25;;;;;;;5.20;0.88;;;15.20;99.90;;;;;;5073641;28;20045;-71
2022/09/25 09:10:02;;;;;;;5.57;1.20;;;15.20;99.90;;;;;;5073432;28;20149;-71
2022/09/25 09:12:40;;;;;;;3.17;0.80;;;15.40;99.90;;;;;;5073456;28;20051;-71
2022/09/25 09:15:17;;;;;;;4.90;1.05;;;15.40;99.90;;;;;;5073530;28;20116;-71
2022/09/25 09:17:43;;;;;;;5.95;1.10;;;15.60;99.90;;;;;;5073436;28;20446;-71
2022/09/25 09:20:30;;;;;;;4.72;1.25;;;15.60;99.90;;;;;;5073611;28;20045;-71
2022/09/25 09:22:57;;;;;;;5.25;1.00;;;15.70;99.90;;;;;;5073329;28;20498;-71
2022/09/25 09:25:34;;;;;;;5.70;1.43;;;15.70;99.90;;;;;;5073306;28;20045;-71
2022/09/25 09:28:22;;;;;;;4.67;0.90;;;15.80;99.90;;;;;;5055316;28;20807;-71
2022/09/25 09:31:25;;;;;;;5.63;1.05;;;16.00;99.90;;;;;;5073515;28;20278;-71
2022/09/25 09:34:00;;;;;;;3.90;0.70;;;16.20;99.90;;;;;;5073397;28;20049;-71
2022/09/25 09:36:41;;;;;;;6.63;1.20;;;16.00;99.90;;;;;;5073307;28;20116;-71
2022/09/25 09:39:30;;;;;;;5.85;0.98;;;15.70;99.90;;;;;;5073521;28;20426;-71
2022/09/25 09:42:16;;;;;;;4.85;1.00;;;15.70;99.90;;;;;;5072661;28;20092;-71
2022/09/25 09:44:57;;;;;;;5.95;1.05;;;15.50;99.90;;;;;;5055258;28;20057;-71
2022/09/25 09:47:49;;;;;;;6.13;0.90;;;15.50;99.90;;;;;;5055078;28;20084;-71
2022/09/25 09:50:24;;;;;;;4.65;1.02;;;15.80;99.90;;;;;;5055052;28;20055;-71
2022/09/25 09:53:05;;;;;;;6.28;1.23;;;16.20;99.90;;;;;;5073096;28;20059;-71
2022/09/25 09:55:36;;;;;;;4.82;1.08;;;16.40;99.90;;;;;;5073083;28;20052;-71
2022/09/25 09:58:09;;;;;;;3.72;0.90;;;16.40;99.90;;;;;;5072984;28;20115;-71
2022/09/25 10:00:38;;;;;;;6.05;0.95;;;16.50;99.90;;;;;;5072744;28;20041;-72
2022/09/25 10:03:28;;;;;;;4.10;1.00;;;16.70;99.90;;;;;;5072672;28;20043;-71
2022/09/25 10:06:01;;;;;;;4.55;0.93;;;16.80;99.90;;;;;;5072909;28;20052;-71
2022/09/25 10:08:28;;;;;;;4.53;0.80;;;16.90;99.90;;;;;;5073125;28;20399;-71
2022/09/25 10:10:54;;;;;;;4.47;1.10;;;17.30;99.90;;;;;;5072907;28;20080;-72
2022/09/25 10:13:31;;;;;;;2.42;0.63;;;17.30;99.90;;;;;;5054917;28;20106;-71
2022/09/25 10:16:07;;;;;;;5.93;1.02;;;17.30;99.90;;;;;;5054733;28;20403;-71
2022/09/25 10:18:39;;;;;;;7.05;1.00;;;17.20;99.90;;;;;;5054928;28;20055;-71
2022/09/25 10:21:10;;;;;;;3.67;0.85;;;17.10;99.90;;;;;;5073312;28;20399;-71
2022/09/25 10:23:52;;;;;;;3.95;1.10;;;16.80;99.90;;;;;;5076156;28;20045;-71
2022/09/25 10:26:39;;;;;;;8.48;1.33;;;16.50;99.90;;;;;;5076431;28;20083;-70
2022/09/25 10:29:25;;;;;;;9.15;2.03;;;15.80;99.90;;;;;;5076201;28;20616;-70
2022/09/25 10:32:02;;;;;;;4.60;1.33;;;15.40;99.90;;;;;;5076111;28;20086;-71
2022/09/25 10:34:30;;;;;;;5.18;1.08;;;15.10;99.90;;;;;;5076458;28;20080;-70
2022/09/25 10:36:56;;;;;;;4.03;0.90;;;15.00;99.90;;;;;;5078014;28;20514;-70
2022/09/25 10:39:32;;;;;;;6.03;1.02;;;14.70;99.90;;;;;;5076316;28;20037;-70
2022/09/25 10:41:59;;;;;;;6.13;1.02;;;14.80;99.90;;;;;;5075949;28;20049;-70
2022/09/25 10:44:34;;;;;;;3.42;0.80;;;14.70;99.90;;;;;;5076185;28;20119;-70
2022/09/25 10:50:21;;;;;;;3.08;0.80;;;14.80;99.90;;;;;;5076114;28;20041;-70
2022/09/25 10:52:52;;;;;;;3.75;0.95;;;14.90;99.90;;;;;;5075773;28;20044;-70
2022/09/25 10:55:29;;;;;;;0.95;0.65;;;14.90;99.90;;;;;;5075818;28;20488;-70
2022/09/25 10:58:02;;;;;;;2.42;0.50;;;14.90;99.90;;;;;;5076001;28;20040;-70
2022/09/25 11:00:28;;;;;;;2.38;0.80;;;15.00;99.90;;;;;;5075754;28;20408;-70
2022/09/25 11:02:58;;;;;;;3.08;0.70;;;14.90;99.90;;;;;;5057691;28;20442;-70
2022/09/25 11:05:32;;;;;;;2.70;0.52;;;14.90;99.90;;;;;;5076253;28;20052;-69
2022/09/25 11:08:05;;;;;;;2.40;0.70;;;14.90;99.90;;;;;;5075537;28;20044;-70
2022/09/25 11:10:35;;;;;;;1.98;0.70;;;14.90;99.90;;;;;;5075604;28;20051;-70
2022/09/25 11:13:16;;;;;;;4.78;0.60;;;15.00;99.90;;;;;;5075691;28;20044;-70
2022/09/25 11:15:48;;;;;;;1.52;0.65;;;15.00;99.90;;;;;;5057607;28;20167;-70
2022/09/25 11:18:45;;;;;;;1.80;0.73;;;15.10;99.90;;;;;;5075390;28;20048;-70
2022/09/25 11:21:33;;;;;;;2.28;0.63;;;15.20;99.90;;;;;;5055382;28;20396;-70
2022/09/25 11:24:28;;;;;;;3.13;0.60;;;15.30;99.90;;;;;;5075190;28;20052;-70
2022/09/25 11:27:00;;;;;;;2.95;0.73;;;15.40;99.90;;;;;;5075266;28;20512;-70
2022/09/25 11:29:41;;;;;;;1.67;0.60;;;15.50;99.90;;;;;;5075526;28;20044;-70
2022/09/25 11:32:36;;;;;;;2.67;0.70;;;15.60;99.90;;;;;;5075303;28;20102;-70
2022/09/25 11:35:20;;;;;;;2.83;0.70;;;15.80;99.90;;;;;;5074973;28;20056;-70
2022/09/25 11:38:04;;;;;;;3.22;0.70;;;15.90;99.90;;;;;;5075189;28;20036;-70
2022/09/25 11:41:15;;;;;;;2.33;0.70;;;16.00;99.90;;;;;;5074609;28;20502;-70
2022/09/25 11:43:50;;;;;;;2.67;0.80;;;16.00;99.90;;;;;;5074799;28;20045;-70
2022/09/25 11:46:22;;;;;;;2.17;0.68;;;16.00;99.90;;;;;;5075295;28;20403;-70
2022/09/25 11:49:23;;;;;;;2.25;0.65;;;16.40;99.90;;;;;;5075034;28;20052;-70
2022/09/25 11:52:23;;;;;;;1.95;0.80;;;16.90;99.90;;;;;;5056996;28;20052;-70
2022/09/25 11:55:10;;;;;;;2.50;0.80;;;17.00;99.90;;;;;;4973834;28;20051;-70
2022/09/25 11:58:09;;;;;;;1.30;0.53;;;17.10;99.90;;;;;;4973951;28;20042;-71
2022/09/25 12:00:45;;;;;;;2.58;0.63;;;17.30;99.90;;;;;;4973808;28;20051;-70
2022/09/25 12:03:14;;;;;;;2.00;0.47;;;17.10;99.90;;;;;;4957678;28;20050;-70
2022/09/25 12:05:54;;;;;;;1.10;0.50;;;17.00;99.90;;;;;;4973590;28;20184;-71
2022/09/25 12:08:28;;;;;;;2.83;0.73;;;16.80;99.90;;;;;;4973713;28;20545;-70
2022/09/25 12:11:15;;;;;;;5.00;0.95;;;16.70;99.90;;;;;;4973483;28;20101;-70
2022/09/25 12:13:53;;;;;;;1.75;0.95;;;16.60;99.90;;;;;;4957701;28;20410;-70
2022/09/25 12:16:29;;;;;;;1.60;0.70;;;16.50;99.90;;;;;;4973501;28;20046;-70
2022/09/25 12:18:59;;;;;;;2.70;0.90;;;16.50;99.90;;;;;;4957523;28;20466;-70
2022/09/25 12:21:35;;;;;;;1.15;0.50;;;16.40;99.90;;;;;;4973602;28;20051;-70
2022/09/25 12:24:19;;;;;;;2.22;0.95;;;16.40;99.90;;;;;;4941248;28;20117;-70
2022/09/25 12:26:53;;;;;;;2.13;0.77;;;16.30;99.90;;;;;;4957650;28;20449;-70
2022/09/25 12:29:45;;;;;;;2.53;0.90;;;16.30;99.90;;;;;;4973210;28;20557;-70
2022/09/25 12:32:35;;;;;;;3.78;0.80;;;16.20;99.90;;;;;;5063929;28;20091;-70
2022/09/25 12:35:35;;;;;;;3.25;0.90;;;16.10;99.90;;;;;;5073728;28;20488;-70
2022/09/25 12:38:29;;;;;;;4.35;0.98;;;16.10;99.90;;;;;;5069292;28;20380;-70
2022/09/25 12:41:04;;;;;;;2.60;0.77;;;16.00;99.90;;;;;;5073753;28;20056;-70
2022/09/25 12:43:51;;;;;;;3.17;0.73;;;15.80;99.90;;;;;;5073858;28;20059;-70
2022/09/25 12:46:36;;;;;;;2.65;0.95;;;;;;;;;;5073718;28;20048;-71
2022/09/25 12:49:33;;;;;;;2.17;0.70;;;15.60;99.90;;;;;;5073545;28;20439;-70
2022/09/25 12:52:13;;;;;;;1.85;0.77;;;15.60;99.90;;;;;;5073833;28;20044;-71
2022/09/25 12:54:46;;;;;;;3.55;0.90;;;15.50;99.90;;;;;;5073726;28;20448;-70
2022/09/25 12:57:20;;;;;;;2.25;0.57;;;15.50;99.90;;;;;;5073953;28;20436;-70
2022/09/25 12:59:53;;;;;;;1.58;0.65;;;15.60;99.90;;;;;;5073400;28;20044;-70
2022/09/25 13:02:44;;;;;;;1.70;0.52;;;15.50;99.90;;;;;;5073649;28;20441;-70
2022/09/25 13:05:20;;;;;;;0.85;0.50;;;15.60;99.90;;;;;;5073888;28;20048;-70
2022/09/25 13:07:58;;;;;;;1.27;0.50;;;15.70;99.90;;;;;;5073454;28;20414;-70
2022/09/25 13:10:32;;;;;;;2.03;0.60;;;15.70;99.90;;;;;;5073254;28;20049;-70
2022/09/25 13:13:03;;;;;;;1.65;0.70;;;15.70;99.90;;;;;;5073580;28;20115;-70
2022/09/25 13:15:36;;;;;;;1.30;0.55;;;15.70;99.90;;;;;;5073602;28;20048;-70
2022/09/25 13:18:03;;;;;;;1.70;0.60;;;15.80;99.90;;;;;;5073324;28;20094;-70
2022/09/25 13:20:32;;;;;;;0.98;0.50;;;15.80;99.90;;;;;;5073177;28;20041;-70
2022/09/25 13:23:39;;;;;;;0.70;0.40;;;15.80;99.90;;;;;;5073128;28;20040;-70
2022/09/25 13:26:17;;;;;;;1.05;0.40;;;15.80;99.90;;;;;;5052781;28;20060;-70
2022/09/25 13:28:55;;;;;;;1.70;0.50;;;15.80;99.90;;;;;;5055404;28;20042;-70
2022/09/25 13:31:29;;;;;;;1.42;0.40;;;15.70;99.90;;;;;;5055570;28;20375;-70
2022/09/25 13:34:08;;;;;;;0.90;0.40;;;15.60;99.90;;;;;;5073239;28;20125;-70
2022/09/25 13:36:38;;;;;;;1.40;0.70;;;15.70;99.90;;;;;;5073405;28;20074;-69
2022/09/25 13:42:07;;;;;;;1.05;0.43;;;15.60;99.90;;;;;;5073148;28;20162;-69
2022/09/25 13:44:46;;;;;;;1.50;0.50;;;15.70;99.90;;;;;;5073390;28;20059;-69
2022/09/25 13:47:24;;;;;;;1.00;0.43;;;15.60;99.90;;;;;;5072948;28;20484;-69